Portada
METAR-TAF:

METAR-TAF

Aeroports :

Guasdualito, Veneçuela

latitud: 07-14N, longitud: 070-48W, altitud: 130 m

Observació

L'informe es va fer fa 23 minuts, a les 12:02 UTC
Vent 1 kt del Sud/Sud-Est
Temperatura 22°C
Humitat 106%
Pressió 1013 hPa

METAR: SVGD 241202Z AUTO 16001KT NCD 22/23 Q1013

Hora: 08:25 (12:25 UTC)


TAF: manca

Observacions i pronòstics meteorològics de més de 4000 aeroports (METAR i TAF).

Les estacions disponibles són els punts grocs i vermells al mapa.

Posi el ratolí al punt desitjat per veure el nom de l'estació.

Feu clic per veure les observacions i els pronòstics meteorològics.

Per canviar el mapa: feu clic els botons verds amb una creu de color negre per apropar; al botó verd amb un guió per allunyar la imatge; o en les fletxes verdes per a mapes adjacents.


METAR-TAF: